Time;durP1;ratioP1;P1;durP2;ratioP2;P2;SDS_P1;SDS_P2;PMS_P1;PMS_P2;Temp;Humidity;BMP_temperature;BMP_pressure;BME280_temperature;BME280_humidity;BME280_pressure;Samples;Min_cycle;Max_cycle;Signal;HPM_P1;HPM_P2
2021/07/18 00:00:09;;;;;;;15.40;8.93;;;22.30;78.10;;;;;;10100662;28;20029;-59
2021/07/18 00:05:01;;;;;;;18.00;9.73;;;22.20;78.30;;;;;;10100288;28;20021;-60
2021/07/18 00:09:52;;;;;;;15.98;9.52;;;22.30;78.20;;;;;;10100257;28;20255;-60
2021/07/18 00:14:43;;;;;;;13.80;8.70;;;22.30;78.30;;;;;;10100488;28;20275;-61
2021/07/18 00:19:34;;;;;;;16.50;10.52;;;22.10;78.50;;;;;;10093353;28;20072;-62
2021/07/18 00:24:25;;;;;;;12.90;8.45;;;22.10;78.70;;;;;;10085193;28;20028;-60
2021/07/18 00:29:16;;;;;;;14.70;9.85;;;22.10;78.70;;;;;;10099406;28;20076;-61
2021/07/18 00:34:06;;;;;;;14.30;9.02;;;22.10;78.60;;;;;;10097760;28;20021;-60
2021/07/18 00:38:57;;;;;;;15.90;8.85;;;22.00;78.90;;;;;;10099122;28;20538;-64
2021/07/18 00:43:48;;;;;;;20.80;10.27;;;22.00;79.10;;;;;;10099345;28;20120;-60
2021/07/18 00:48:38;;;;;;;10.75;7.38;;;22.00;79.20;;;;;;10097647;28;20184;-60
2021/07/18 00:53:30;;;;;;;11.15;7.30;;;21.70;79.60;;;;;;10097387;28;20392;-60
2021/07/18 00:58:22;;;;;;;13.55;8.10;;;21.80;79.50;;;;;;10099953;28;20102;-60
2021/07/18 01:03:14;;;;;;;13.48;7.32;;;21.70;79.60;;;;;;10064397;28;20116;-60
2021/07/18 01:08:05;;;;;;;13.38;6.97;;;21.70;80.20;;;;;;10098346;28;20049;-60
2021/07/18 01:12:56;;;;;;;15.70;10.35;;;21.60;80.00;;;;;;10096117;28;20068;-60
2021/07/18 01:17:47;;;;;;;12.27;7.57;;;21.50;80.00;;;;;;10098153;28;20183;-60
2021/07/18 01:22:38;;;;;;;11.32;6.05;;;21.40;80.00;;;;;;10085897;28;20180;-60
2021/07/18 01:27:29;;;;;;;11.07;5.93;;;21.60;79.70;;;;;;10073791;28;20463;-61
2021/07/18 01:32:20;;;;;;;13.55;7.95;;;21.50;79.60;;;;;;10068170;28;20028;-60
2021/07/18 01:37:12;;;;;;;10.75;6.20;;;21.50;79.70;;;;;;10096910;28;20459;-60
2021/07/18 01:42:03;;;;;;;9.65;6.18;;;21.40;80.00;;;;;;10097100;28;20056;-59
2021/07/18 01:46:54;;;;;;;16.23;7.13;;;21.30;80.30;;;;;;10129642;28;20078;-60
2021/07/18 01:51:44;;;;;;;12.02;6.22;;;21.30;80.50;;;;;;10099621;28;20033;-60
2021/07/18 01:56:35;;;;;;;12.18;5.28;;;21.10;80.60;;;;;;10096672;28;20348;-60
2021/07/18 02:01:31;;;;;;;8.85;4.97;;;21.10;80.80;;;;;;10096024;28;20083;-59
2021/07/18 02:06:26;;;;;;;11.85;5.20;;;21.00;80.60;;;;;;10095226;28;20049;-60
2021/07/18 02:11:17;;;;;;;;;;;21.00;80.50;;;;;;10096723;28;20029;-61
2021/07/18 02:16:08;;;;;;;10.80;5.05;;;20.90;80.50;;;;;;10095409;28;19905;-60
2021/07/18 02:20:59;;;;;;;8.18;4.50;;;20.90;80.30;;;;;;10085767;28;20478;-60
2021/07/18 02:25:50;;;;;;;8.85;5.22;;;20.80;80.20;;;;;;10095905;28;20048;-60
2021/07/18 02:30:41;;;;;;;7.97;4.78;;;20.80;80.20;;;;;;10096128;28;20090;-60
2021/07/18 02:35:31;;;;;;;7.93;4.50;;;20.80;79.90;;;;;;10094942;28;20037;-60
2021/07/18 02:40:23;;;;;;;11.35;5.65;;;20.70;80.10;;;;;;10095465;28;20369;-60
2021/07/18 02:45:15;;;;;;;7.25;5.03;;;20.60;80.40;;;;;;10094593;28;20546;-61
2021/07/18 02:50:08;;;;;;;6.20;4.20;;;20.50;80.50;;;;;;10094476;28;20451;-61
2021/07/18 02:54:59;;;;;;;7.75;4.55;;;20.40;80.40;;;;;;10093578;28;20077;-59
2021/07/18 02:59:51;;;;;;;5.13;4.00;;;20.50;80.30;;;;;;10094102;28;20048;-61
2021/07/18 03:04:42;;;;;;;7.50;4.18;;;20.30;80.40;;;;;;10093090;28;20036;-60
2021/07/18 03:09:32;;;;;;;6.28;3.33;;;20.30;80.20;;;;;;10091792;28;20049;-60
2021/07/18 03:14:23;;;;;;;4.45;3.15;;;20.20;80.20;;;;;;10093424;28;20098;-60
2021/07/18 03:19:15;;;;;;;5.75;2.88;;;20.20;79.80;;;;;;10094256;28;20082;-60
2021/07/18 03:24:06;;;;;;;4.90;2.72;;;20.20;79.60;;;;;;10093731;28;20311;-60
2021/07/18 03:28:56;;;;;;;4.10;2.55;;;20.20;79.30;;;;;;10093466;28;20059;-61
2021/07/18 03:33:47;;;;;;;7.07;2.50;;;20.10;79.10;;;;;;10093554;28;20095;-59
2021/07/18 03:38:38;;;;;;;4.18;2.28;;;20.00;79.00;;;;;;10093714;28;20029;-59
2021/07/18 03:43:29;;;;;;;6.40;2.55;;;20.00;78.90;;;;;;10089917;28;20044;-60
2021/07/18 03:48:20;;;;;;;4.10;1.85;;;19.90;78.60;;;;;;10093158;28;20048;-60
2021/07/18 03:53:10;;;;;;;3.88;1.77;;;19.90;78.30;;;;;;10092735;28;20017;-60
2021/07/18 03:58:01;;;;;;;5.68;2.38;;;19.80;78.40;;;;;;10092198;28;20049;-60
2021/07/18 04:02:52;;;;;;;2.67;1.80;;;19.80;78.30;;;;;;10092924;28;20412;-59
2021/07/18 04:07:42;;;;;;;3.70;1.77;;;19.80;78.00;;;;;;10092294;28;20087;-60
2021/07/18 04:12:33;;;;;;;3.88;2.03;;;19.80;77.90;;;;;;10092266;28;20029;-60
2021/07/18 04:17:24;;;;;;;4.43;1.92;;;19.80;77.80;;;;;;10093232;28;20285;-60
2021/07/18 04:22:14;;;;;;;3.50;1.95;;;19.70;77.90;;;;;;10091626;28;20037;-59
2021/07/18 04:27:05;;;;;;;4.45;2.35;;;19.70;78.00;;;;;;10094707;28;20090;-60
2021/07/18 04:31:56;;;;;;;3.42;1.42;;;19.70;77.70;;;;;;10099382;28;20041;-62
2021/07/18 04:36:46;;;;;;;2.85;1.83;;;19.70;77.80;;;;;;10099099;28;20029;-60
2021/07/18 04:41:37;;;;;;;5.32;2.55;;;19.60;77.80;;;;;;10099398;28;20173;-59
2021/07/18 04:46:28;;;;;;;3.22;1.70;;;19.60;77.90;;;;;;10099434;28;20090;-59
2021/07/18 04:51:18;;;;;;;4.88;1.83;;;19.60;77.90;;;;;;10098487;28;20484;-59
2021/07/18 04:56:09;;;;;;;3.38;2.25;;;19.60;77.90;;;;;;10098349;28;20082;-60
2021/07/18 05:01:00;;;;;;;7.13;2.47;;;19.50;78.20;;;;;;10098450;28;20195;-58
2021/07/18 05:05:51;;;;;;;4.05;1.80;;;19.50;78.30;;;;;;10097322;28;20494;-58
2021/07/18 05:10:41;;;;;;;3.72;2.25;;;19.60;77.90;;;;;;10098512;28;20044;-59
2021/07/18 05:15:34;;;;;;;7.45;2.75;;;19.60;78.00;;;;;;10098222;28;20036;-59
2021/07/18 05:20:25;;;;;;;4.32;1.50;;;19.60;77.90;;;;;;10082525;28;20030;-60
2021/07/18 05:25:16;;;;;;;4.63;1.88;;;19.70;77.70;;;;;;10062377;28;20025;-60
2021/07/18 05:30:09;;;;;;;5.22;2.45;;;19.70;77.60;;;;;;10097202;28;20399;-60
2021/07/18 05:34:59;;;;;;;5.65;1.73;;;19.70;77.50;;;;;;10095465;28;20045;-59
2021/07/18 05:39:50;;;;;;;2.28;1.20;;;19.80;77.40;;;;;;10097055;28;20029;-59
2021/07/18 05:44:42;;;;;;;2.88;1.15;;;19.70;77.40;;;;;;10096591;28;20075;-60
2021/07/18 05:49:33;;;;;;;2.50;1.70;;;19.80;77.30;;;;;;10096517;28;20491;-60
2021/07/18 05:54:23;;;;;;;5.95;1.70;;;19.90;76.90;;;;;;10095972;28;20029;-60
2021/07/18 05:59:14;;;;;;;1.73;1.25;;;19.80;77.10;;;;;;10096265;28;20040;-59
2021/07/18 06:04:05;;;;;;;6.22;1.30;;;19.90;76.90;;;;;;10096289;28;20025;-59
2021/07/18 06:08:55;;;;;;;2.80;1.10;;;19.90;76.70;;;;;;10096698;28;21325;-59
2021/07/18 06:13:46;;;;;;;2.75;1.65;;;20.00;76.70;;;;;;10095605;28;20060;-59
2021/07/18 06:18:37;;;;;;;4.13;1.58;;;19.90;76.60;;;;;;10095650;28;20051;-58
2021/07/18 06:23:28;;;;;;;4.80;1.58;;;20.00;76.40;;;;;;10095163;28;20033;-59
2021/07/18 06:28:18;;;;;;;2.28;1.17;;;20.00;76.40;;;;;;10095393;28;20087;-58
2021/07/18 06:33:09;;;;;;;4.15;1.60;;;20.10;76.00;;;;;;10094322;28;20037;-59
2021/07/18 06:38:00;;;;;;;2.53;1.02;;;20.10;75.90;;;;;;10055092;28;20132;-59
2021/07/18 06:42:51;;;;;;;2.22;1.58;;;20.20;75.90;;;;;;10060116;28;20279;-59
2021/07/18 06:47:42;;;;;;;3.53;1.27;;;20.30;75.70;;;;;;10058592;28;20338;-58
2021/07/18 06:52:33;;;;;;;1.52;0.90;;;20.30;75.50;;;;;;10053858;28;20481;-59
2021/07/18 06:57:23;;;;;;;1.33;1.10;;;20.40;76.00;;;;;;10053760;28;20036;-60
2021/07/18 07:02:15;;;;;;;3.40;1.25;;;20.40;75.20;;;;;;10056594;28;20025;-59
2021/07/18 07:07:05;;;;;;;2.65;1.50;;;20.50;75.00;;;;;;10093558;28;20048;-61
2021/07/18 07:11:57;;;;;;;2.10;1.20;;;20.60;74.50;;;;;;10094079;28;20046;-59
2021/07/18 07:16:48;;;;;;;2.05;1.20;;;20.70;74.00;;;;;;10093751;28;20029;-59
2021/07/18 07:21:39;;;;;;;4.13;2.03;;;20.80;74.10;;;;;;10067809;28;20056;-60
2021/07/18 07:26:30;;;;;;;3.22;1.63;;;20.90;73.70;;;;;;10116295;28;20029;-59
2021/07/18 07:31:21;;;;;;;1.63;1.00;;;21.00;73.40;;;;;;10093791;28;20120;-60
2021/07/18 07:36:11;;;;;;;2.35;1.20;;;21.00;73.30;;;;;;10092871;28;20032;-59
2021/07/18 07:41:02;;;;;;;3.80;1.30;;;21.10;73.00;;;;;;10093411;28;20028;-59
2021/07/18 07:45:54;;;;;;;2.30;1.42;;;21.20;72.80;;;;;;10092690;28;20037;-60
2021/07/18 07:50:45;;;;;;;1.45;1.05;;;21.20;72.70;;;;;;10106715;28;20530;-59
2021/07/18 07:55:35;;;;;;;2.90;1.10;;;21.30;72.50;;;;;;10116488;28;20613;-59
2021/07/18 08:00:26;;;;;;;3.35;1.30;;;21.30;72.30;;;;;;10089558;28;20275;-59
2021/07/18 08:05:18;;;;;;;1.77;1.08;;;21.50;71.90;;;;;;10099505;28;20029;-63
2021/07/18 08:10:12;;;;;;;2.72;1.30;;;21.50;71.60;;;;;;10099430;28;20095;-59
2021/07/18 08:15:06;;;;;;;3.45;1.05;;;21.50;71.40;;;;;;10099327;28;20036;-58
2021/07/18 08:19:56;;;;;;;1.63;1.13;;;21.50;70.70;;;;;;10089931;28;20319;-59
2021/07/18 08:24:48;;;;;;;3.95;1.17;;;21.50;70.50;;;;;;10077865;28;20037;-58
2021/07/18 08:29:38;;;;;;;2.78;1.52;;;21.70;70.10;;;;;;10099719;28;20029;-59
2021/07/18 08:34:29;;;;;;;3.08;1.25;;;21.80;69.70;;;;;;10097380;28;20017;-59
2021/07/18 08:39:20;;;;;;;2.28;1.30;;;21.90;69.40;;;;;;10097251;28;20044;-58
2021/07/18 08:44:14;;;;;;;1.88;1.52;;;22.10;69.00;;;;;;10099229;28;20021;-58
2021/07/18 08:49:06;;;;;;;1.88;1.20;;;22.10;68.90;;;;;;10098803;28;20045;-59
2021/07/18 08:53:58;;;;;;;2.95;1.30;;;22.20;68.60;;;;;;10098730;28;20021;-58
2021/07/18 08:58:49;;;;;;;2.60;0.85;;;22.40;68.00;;;;;;10098568;28;20021;-61
2021/07/18 09:03:40;;;;;;;3.70;1.30;;;22.40;68.00;;;;;;10098083;28;20025;-59
2021/07/18 09:08:41;;;;;;;2.50;1.13;;;22.40;67.80;;;;;;10097916;28;20095;-58
2021/07/18 09:13:31;;;;;;;4.97;1.20;;;22.60;67.20;;;;;;10097518;28;20075;-59
2021/07/18 09:18:26;;;;;;;2.05;1.08;;;22.60;67.20;;;;;;10097626;28;20025;-57
2021/07/18 09:23:30;;;;;;;5.38;1.23;;;22.70;67.20;;;;;;10091940;28;20504;-58
2021/07/18 09:28:22;;;;;;;2.63;1.05;;;22.80;67.20;;;;;;10097172;28;20041;-58
2021/07/18 09:33:27;;;;;;;1.65;1.00;;;22.90;66.90;;;;;;10097496;28;20490;-58
2021/07/18 09:38:23;;;;;;;1.85;1.00;;;23.10;66.60;;;;;;10096760;28;20029;-61
2021/07/18 09:43:21;;;;;;;7.47;1.48;;;23.20;66.20;;;;;;10096302;28;20033;-59
2021/07/18 09:48:14;;;;;;;2.08;1.50;;;23.20;66.20;;;;;;10096749;28;20037;-60
2021/07/18 09:53:16;;;;;;;3.67;1.17;;;23.20;66.60;;;;;;10096433;28;20029;-60
2021/07/18 09:58:06;;;;;;;2.00;1.10;;;23.40;66.50;;;;;;10096600;28;20606;-59
2021/07/18 10:03:08;;;;;;;2.10;1.13;;;23.50;66.20;;;;;;10095468;28;20132;-58
2021/07/18 10:08:07;;;;;;;4.10;1.20;;;23.50;66.30;;;;;;10095318;28;20511;-59
2021/07/18 10:12:58;;;;;;;3.10;1.58;;;23.60;66.30;;;;;;10095456;28;20029;-61
2021/07/18 10:17:50;;;;;;;2.25;1.00;;;23.60;66.10;;;;;;10095603;28;20104;-60
2021/07/18 10:22:42;;;;;;;2.22;1.55;;;23.80;66.10;;;;;;10063007;28;20029;-59
2021/07/18 10:27:35;;;;;;;6.30;2.03;;;23.90;65.80;;;;;;10090844;28;20029;-59
2021/07/18 10:32:26;;;;;;;4.97;1.80;;;24.00;65.70;;;;;;10094794;28;20032;-59
2021/07/18 10:37:17;;;;;;;6.45;1.83;;;24.00;65.60;;;;;;10094750;28;20400;-60
2021/07/18 10:42:15;;;;;;;2.00;1.17;;;24.10;65.50;;;;;;10094588;28;20091;-58
2021/07/18 10:47:05;;;;;;;4.53;1.80;;;24.30;65.20;;;;;;10094663;28;20090;-60
2021/07/18 10:51:56;;;;;;;3.65;1.40;;;24.40;65.00;;;;;;10094323;28;20025;-62
2021/07/18 10:56:50;;;;;;;3.13;1.70;;;24.40;64.70;;;;;;10094857;28;20500;-58
2021/07/18 11:01:41;;;;;;;5.00;1.67;;;24.50;64.50;;;;;;10091626;28;20093;-60
2021/07/18 11:06:37;;;;;;;3.40;1.52;;;24.50;64.70;;;;;;10093519;28;20063;-59
2021/07/18 11:11:57;;;;;;;3.58;1.70;;;24.60;64.30;;;;;;10094592;28;20082;-59
2021/07/18 11:16:59;;;;;;;3.85;1.70;;;24.60;62.90;;;;;;10094361;28;20028;-60
2021/07/18 11:21:49;;;;;;;5.90;2.55;;;24.80;62.80;;;;;;10093571;28;20495;-59
2021/07/18 11:26:49;;;;;;;2.15;1.30;;;24.80;63.30;;;;;;10093622;28;20213;-60
2021/07/18 11:31:41;;;;;;;3.40;1.55;;;24.90;62.90;;;;;;10092421;28;20044;-61
2021/07/18 11:36:32;;;;;;;3.53;1.40;;;24.90;62.80;;;;;;10094643;28;20048;-60
2021/07/18 11:41:25;;;;;;;2.95;1.35;;;25.20;62.40;;;;;;10101420;28;20028;-58
2021/07/18 11:46:18;;;;;;;2.70;1.85;;;25.20;62.10;;;;;;10101258;28;20033;-60
2021/07/18 11:51:18;;;;;;;2.00;1.17;;;25.20;62.00;;;;;;10100625;28;20056;-60
2021/07/18 11:56:24;;;;;;;3.88;1.60;;;25.40;61.90;;;;;;10100901;28;20017;-59
2021/07/18 12:01:28;;;;;;;2.95;1.70;;;25.50;61.20;;;;;;10100260;28;20267;-57
2021/07/18 12:06:27;;;;;;;3.13;1.73;;;25.60;61.00;;;;;;10100399;28;20040;-58
2021/07/18 12:11:32;;;;;;;3.00;1.63;;;25.60;61.00;;;;;;10100025;28;20489;-59
2021/07/18 12:16:25;;;;;;;4.63;1.60;;;25.70;60.40;;;;;;10100002;28;20483;-57
2021/07/18 12:21:23;;;;;;;5.55;1.70;;;26.10;60.40;;;;;;10097979;28;20039;-58
2021/07/18 12:26:20;;;;;;;3.53;1.85;;;26.50;59.90;;;;;;10100381;28;20453;-56
2021/07/18 12:31:12;;;;;;;4.30;2.40;;;26.80;58.90;;;;;;10099421;28;20534;-58
2021/07/18 12:36:03;;;;;;;2.78;1.77;;;27.00;59.90;;;;;;10099772;28;20025;-60
2021/07/18 12:41:03;;;;;;;3.58;1.60;;;27.20;59.40;;;;;;10099163;28;20029;-59
2021/07/18 12:45:54;;;;;;;4.22;2.10;;;27.80;56.50;;;;;;10099504;28;20025;-57
2021/07/18 12:50:46;;;;;;;4.60;2.42;;;28.20;58.60;;;;;;10096820;28;20037;-58
2021/07/18 12:55:46;;;;;;;3.67;1.83;;;28.40;57.40;;;;;;10097675;28;20074;-60
2021/07/18 13:00:37;;;;;;;4.05;2.40;;;28.80;55.20;;;;;;10098869;28;20037;-61
2021/07/18 13:05:30;;;;;;;2.70;2.03;;;29.40;55.00;;;;;;10098045;28;20025;-60
2021/07/18 13:10:21;;;;;;;4.70;2.63;;;30.50;52.80;;;;;;10098452;28;20056;-57
2021/07/18 13:15:14;;;;;;;4.15;3.20;;;31.20;51.00;;;;;;10098259;28;20013;-57
2021/07/18 13:20:06;;;;;;;4.88;3.15;;;31.80;49.60;;;;;;10097379;28;20406;-61
2021/07/18 13:24:58;;;;;;;;;;;32.20;48.20;;;;;;10096395;28;20043;-56
2021/07/18 13:29:54;;;;;;;7.90;4.75;;;32.80;44.30;;;;;;10097468;28;19916;-59
2021/07/18 13:35:05;;;;;;;4.63;3.75;;;33.10;46.30;;;;;;10097145;28;20028;-58
2021/07/18 13:39:56;;;;;;;7.47;4.03;;;33.20;43.60;;;;;;10097538;28;20048;-58
2021/07/18 13:44:46;;;;;;;7.20;4.23;;;34.30;44.20;;;;;;10097419;28;20025;-61
2021/07/18 13:49:37;;;;;;;7.03;3.70;;;34.40;43.40;;;;;;10097188;28;20071;-59
2021/07/18 13:54:28;;;;;;;6.00;3.60;;;34.20;42.90;;;;;;10096351;28;20025;-58
2021/07/18 13:59:19;;;;;;;5.05;3.97;;;34.00;42.40;;;;;;10096196;28;20384;-57
2021/07/18 14:04:09;;;;;;;7.00;4.10;;;34.20;41.80;;;;;;10094894;28;20050;-58
2021/07/18 14:09:02;;;;;;;6.87;4.27;;;34.10;41.00;;;;;;10093847;28;20099;-59
2021/07/18 14:13:53;;;;;;;5.63;3.75;;;33.90;40.00;;;;;;10095692;28;20349;-58
2021/07/18 14:18:44;;;;;;;5.03;3.57;;;34.40;39.30;;;;;;10096529;28;20037;-58
2021/07/18 14:23:34;;;;;;;7.80;4.83;;;34.40;39.20;;;;;;10110774;28;20047;-58
2021/07/18 14:28:26;;;;;;;7.47;5.17;;;34.40;38.10;;;;;;10135144;28;20047;-57
2021/07/18 14:33:16;;;;;;;;;;;34.20;37.60;;;;;;10117829;28;20394;-58
2021/07/18 14:38:07;;;;;;;7.77;4.47;;;34.20;35.50;;;;;;10094981;28;20027;-58
2021/07/18 14:42:58;;;;;;;5.35;4.30;;;34.30;37.40;;;;;;10094447;28;20072;-58
2021/07/18 14:47:50;;;;;;;6.47;4.87;;;34.60;36.90;;;;;;10093533;28;20074;-58
2021/07/18 14:52:41;;;;;;;;;;;34.40;36.60;;;;;;10094755;28;20348;-58
2021/07/18 14:57:32;;;;;;;4.77;3.80;;;34.40;33.50;;;;;;10090712;28;20004;-56
2021/07/18 15:02:22;;;;;;;5.38;4.28;;;34.00;35.70;;;;;;10082912;28;20028;-57
2021/07/18 15:07:14;;;;;;;6.30;4.47;;;34.00;35.50;;;;;;10090896;28;20048;-58
2021/07/18 15:12:05;;;;;;;8.30;4.45;;;34.10;35.10;;;;;;10090136;28;20829;-58
2021/07/18 15:16:56;;;;;;;6.55;4.00;;;34.00;34.90;;;;;;10089335;28;20035;-58
2021/07/18 15:21:46;;;;;;;6.27;3.73;;;34.00;34.60;;;;;;10079916;28;20128;-57
2021/07/18 15:26:41;;;;;;;6.13;4.23;;;33.90;34.70;;;;;;10093363;28;20691;-58
2021/07/18 15:31:32;;;;;;;4.85;3.80;;;33.90;34.70;;;;;;10091343;28;20067;-58
2021/07/18 15:36:22;;;;;;;6.00;4.13;;;34.00;35.20;;;;;;10093384;28;20162;-60
2021/07/18 15:41:13;;;;;;;7.30;4.37;;;34.00;35.80;;;;;;10093682;28;20514;-56
2021/07/18 15:46:04;;;;;;;8.20;4.23;;;34.60;36.10;;;;;;10093331;28;20055;-55
2021/07/18 15:50:54;;;;;;;4.87;3.47;;;35.50;35.50;;;;;;10092743;28;20048;-57
2021/07/18 15:55:47;;;;;;;4.03;3.50;;;35.30;36.00;;;;;;10092375;28;20051;-57
2021/07/18 16:00:37;;;;;;;6.85;3.65;;;35.90;35.90;;;;;;10091736;28;20033;-57
2021/07/18 16:05:28;;;;;;;4.17;3.10;;;36.60;35.00;;;;;;10092715;28;20075;-57
2021/07/18 16:10:19;;;;;;;4.40;2.70;;;37.10;34.70;;;;;;10092804;28;20291;-56
2021/07/18 16:15:11;;;;;;;3.42;2.40;;;36.60;35.10;;;;;;10093365;28;20091;-58
2021/07/18 16:20:04;;;;;;;4.95;2.85;;;37.00;34.30;;;;;;10092446;28;20073;-57
2021/07/18 16:24:55;;;;;;;4.93;3.25;;;37.40;34.10;;;;;;10098499;28;20698;-53
2021/07/18 16:29:46;;;;;;;3.75;2.17;;;38.10;33.20;;;;;;10099619;28;20318;-57
2021/07/18 16:34:37;;;;;;;3.10;2.20;;;37.80;33.10;;;;;;10099199;28;20029;-56
2021/07/18 16:39:28;;;;;;;;;;;37.90;32.90;;;;;;10098405;28;20415;-57
2021/07/18 16:44:18;;;;;;;4.90;2.10;;;38.80;31.50;;;;;;10099410;28;19911;-58
2021/07/18 16:49:10;;;;;;;;;;;38.70;32.30;;;;;;10099535;28;20051;-56
2021/07/18 16:54:00;;;;;;;5.05;2.70;;;39.10;31.60;;;;;;10098768;28;20278;-56
2021/07/18 16:58:51;;;;;;;2.13;1.55;;;39.40;31.80;;;;;;10098830;28;20037;-57
2021/07/18 17:03:42;;;;;;;4.00;2.22;;;39.70;31.30;;;;;;10096335;28;20024;-54
2021/07/18 17:08:32;;;;;;;3.53;2.47;;;40.00;30.60;;;;;;10096758;28;20511;-57
2021/07/18 17:13:23;;;;;;;3.50;2.60;;;39.90;30.30;;;;;;10097631;28;20064;-55
2021/07/18 17:18:14;;;;;;;;;;;39.80;30.50;;;;;;10097932;28;20034;-56
2021/07/18 17:23:05;;;;;;;4.13;2.37;;;39.60;30.50;;;;;;10095537;28;19924;-56
2021/07/18 17:27:55;;;;;;;;;;;39.70;30.70;;;;;;10097426;28;20526;-56
2021/07/18 17:32:46;;;;;;;4.77;2.27;;;38.00;31.90;;;;;;10095926;28;19917;-59
2021/07/18 17:37:37;;;;;;;2.17;1.60;;;38.40;32.10;;;;;;10096560;28;20252;-57
2021/07/18 17:42:28;;;;;;;2.55;1.73;;;38.20;31.80;;;;;;10096259;28;20579;-57
2021/07/18 17:47:18;;;;;;;3.03;1.70;;;37.80;32.20;;;;;;10096395;28;20197;-59
2021/07/18 17:52:09;;;;;;;5.73;1.87;;;37.50;32.60;;;;;;10095943;28;20463;-62
2021/07/18 17:57:00;;;;;;;2.43;1.53;;;37.40;32.80;;;;;;10096365;28;20021;-59
2021/07/18 18:01:51;;;;;;;1.92;1.42;;;36.50;33.40;;;;;;10095153;28;20143;-56
2021/07/18 18:06:41;;;;;;;2.83;1.40;;;33.90;35.80;;;;;;10093854;28;20044;-57
2021/07/18 18:11:33;;;;;;;1.42;1.20;;;32.20;37.60;;;;;;10093781;28;20119;-56
2021/07/18 18:16:24;;;;;;;1.55;1.30;;;31.30;38.20;;;;;;10094128;28;20071;-57
2021/07/18 18:21:15;;;;;;;3.33;1.88;;;31.30;38.10;;;;;;10094280;28;20037;-59
2021/07/18 18:26:06;;;;;;;2.83;1.42;;;30.90;38.60;;;;;;10094308;28;20036;-58
2021/07/18 18:30:57;;;;;;;3.50;1.23;;;30.50;39.00;;;;;;10093928;28;20628;-59
2021/07/18 18:35:48;;;;;;;2.42;1.50;;;30.10;39.80;;;;;;10093673;28;20024;-57
2021/07/18 18:40:39;;;;;;;4.43;1.95;;;29.90;40.20;;;;;;10093028;28;20066;-60
2021/07/18 18:45:30;;;;;;;14.20;1.90;;;29.80;40.40;;;;;;10091350;28;20039;-57
2021/07/18 18:50:20;;;;;;;2.95;1.50;;;29.60;40.90;;;;;;10094451;28;20083;-62
2021/07/18 18:55:11;;;;;;;1.35;1.10;;;29.30;41.50;;;;;;10093750;28;20033;-57
2021/07/18 19:00:06;;;;;;;6.43;2.08;;;29.20;41.80;;;;;;10093548;28;20025;-58
2021/07/18 19:04:57;;;;;;;1.63;1.20;;;29.00;42.10;;;;;;10093308;28;20039;-56
2021/07/18 19:09:48;;;;;;;2.85;1.05;;;29.00;42.30;;;;;;10093227;28;20053;-58
2021/07/18 19:14:39;;;;;;;2.30;1.60;;;28.90;42.60;;;;;;10091869;28;20028;-59
2021/07/18 19:19:29;;;;;;;2.13;1.63;;;28.80;42.90;;;;;;10092512;28;20044;-59
2021/07/18 19:24:20;;;;;;;4.15;1.67;;;28.70;43.10;;;;;;10091585;28;20033;-59
2021/07/18 19:29:11;;;;;;;3.75;1.58;;;28.50;43.60;;;;;;10092819;28;20073;-59
2021/07/18 19:34:02;;;;;;;3.95;1.88;;;28.40;44.20;;;;;;10093159;28;20155;-59
2021/07/18 19:38:53;;;;;;;2.17;1.08;;;28.20;44.60;;;;;;10093608;28;20037;-59
2021/07/18 19:43:43;;;;;;;1.80;1.30;;;28.20;44.90;;;;;;10089070;28;20261;-58
2021/07/18 19:48:37;;;;;;;3.88;1.27;;;28.10;45.30;;;;;;10093381;28;20029;-59
2021/07/18 19:53:28;;;;;;;5.57;1.50;;;28.10;45.40;;;;;;10092553;28;20147;-59
2021/07/18 19:58:19;;;;;;;3.22;2.13;;;28.00;45.60;;;;;;10095875;28;20283;-60
2021/07/18 20:03:09;;;;;;;5.38;1.70;;;28.00;46.00;;;;;;10099464;28;20534;-59
2021/07/18 20:08:00;;;;;;;6.05;1.95;;;27.90;46.20;;;;;;10098959;28;20057;-60
2021/07/18 20:12:51;;;;;;;1.98;1.40;;;27.90;46.30;;;;;;10099748;28;20022;-57
2021/07/18 20:17:42;;;;;;;5.45;2.10;;;27.80;46.70;;;;;;10101103;28;20025;-60
2021/07/18 20:22:35;;;;;;;4.15;2.53;;;27.80;47.00;;;;;;10068915;28;20075;-59
2021/07/18 20:27:26;;;;;;;3.83;1.77;;;27.60;47.30;;;;;;10097728;28;20672;-58
2021/07/18 20:32:19;;;;;;;3.80;2.00;;;27.50;47.80;;;;;;10100067;28;20335;-58
2021/07/18 20:37:09;;;;;;;4.43;2.10;;;27.40;48.00;;;;;;10099268;28;20119;-59
2021/07/18 20:42:00;;;;;;;4.55;2.40;;;27.20;48.50;;;;;;10098666;28;20527;-58
2021/07/18 20:46:50;;;;;;;4.38;1.95;;;27.10;48.90;;;;;;10099236;28;20127;-58
2021/07/18 20:51:42;;;;;;;4.85;2.45;;;27.00;49.20;;;;;;10099688;28;20033;-58
2021/07/18 20:56:33;;;;;;;3.78;1.73;;;27.00;49.50;;;;;;10098793;28;20078;-57
2021/07/18 21:01:23;;;;;;;6.70;2.15;;;26.80;50.10;;;;;;10098022;28;20440;-59
2021/07/18 21:06:14;;;;;;;2.75;1.90;;;26.70;50.40;;;;;;10098366;28;20036;-58
2021/07/18 21:11:05;;;;;;;4.97;1.90;;;26.60;51.20;;;;;;10097167;28;20124;-58
2021/07/18 21:15:57;;;;;;;3.72;1.75;;;26.40;51.80;;;;;;10098917;28;20029;-59
2021/07/18 21:20:48;;;;;;;3.60;2.33;;;26.30;52.10;;;;;;10097440;28;20045;-59
2021/07/18 21:25:39;;;;;;;5.20;2.50;;;26.20;52.60;;;;;;10097674;28;20511;-58
2021/07/18 21:30:30;;;;;;;2.80;1.63;;;26.20;52.80;;;;;;10097762;28;20309;-60
2021/07/18 21:35:21;;;;;;;3.17;1.63;;;26.10;53.20;;;;;;10094901;28;20348;-59
2021/07/18 21:40:14;;;;;;;2.70;1.45;;;26.10;53.30;;;;;;10096681;28;20033;-60
2021/07/18 21:45:06;;;;;;;3.80;2.15;;;26.00;53.90;;;;;;10096794;28;20511;-58
2021/07/18 21:49:57;;;;;;;2.25;1.73;;;25.80;54.50;;;;;;10096286;28;20048;-59
2021/07/18 21:54:47;;;;;;;4.70;1.67;;;25.80;54.90;;;;;;10096543;28;20052;-59
2021/07/18 21:59:38;;;;;;;2.63;2.10;;;25.80;55.20;;;;;;10096466;28;20733;-58
2021/07/18 22:04:29;;;;;;;4.47;2.25;;;25.80;55.30;;;;;;10094290;28;20029;-58
2021/07/18 22:09:19;;;;;;;3.35;1.95;;;25.90;55.10;;;;;;10095674;28;20658;-57
2021/07/18 22:14:10;;;;;;;2.97;1.83;;;25.80;55.40;;;;;;10095242;28;20029;-58
2021/07/18 22:19:01;;;;;;;3.85;1.60;;;25.70;55.80;;;;;;10093226;28;20098;-57
2021/07/18 22:23:51;;;;;;;3.53;1.90;;;25.70;56.10;;;;;;10093075;28;20017;-59
2021/07/18 22:28:42;;;;;;;5.55;2.10;;;25.60;56.40;;;;;;10094754;28;20033;-56
2021/07/18 22:33:33;;;;;;;2.70;1.63;;;25.40;57.00;;;;;;10093921;28;20021;-59
2021/07/18 22:38:24;;;;;;;2.33;1.63;;;25.30;57.20;;;;;;10094730;28;20044;-59
2021/07/18 22:43:14;;;;;;;6.88;2.90;;;25.20;57.60;;;;;;10095026;28;20021;-58
2021/07/18 22:48:05;;;;;;;3.70;1.80;;;25.10;58.00;;;;;;10094732;28;20049;-58
2021/07/18 22:52:56;;;;;;;6.05;1.90;;;25.10;58.10;;;;;;10094144;28;20399;-59
2021/07/18 22:57:49;;;;;;;5.93;2.22;;;25.00;58.40;;;;;;10094378;28;20029;-59
2021/07/18 23:02:39;;;;;;;4.28;2.28;;;24.90;58.70;;;;;;10094308;28;20079;-59
2021/07/18 23:07:30;;;;;;;3.72;1.90;;;24.90;59.10;;;;;;10093745;28;20045;-59
2021/07/18 23:12:21;;;;;;;3.33;1.98;;;24.80;59.30;;;;;;10093481;28;20037;-58
2021/07/18 23:17:11;;;;;;;2.92;1.63;;;24.90;59.60;;;;;;10093522;28;20124;-59
2021/07/18 23:22:02;;;;;;;4.88;1.88;;;24.90;59.70;;;;;;10092862;28;20063;-59
2021/07/18 23:26:53;;;;;;;4.25;1.70;;;24.80;60.10;;;;;;10093902;28;20116;-59
2021/07/18 23:31:44;;;;;;;4.65;1.90;;;24.70;60.30;;;;;;10103625;28;20059;-59
2021/07/18 23:36:35;;;;;;;4.22;1.90;;;24.70;60.50;;;;;;10112430;28;20074;-59
2021/07/18 23:41:25;;;;;;;2.03;1.63;;;24.60;60.90;;;;;;10093440;28;20086;-59
2021/07/18 23:46:16;;;;;;;3.47;1.88;;;24.50;60.90;;;;;;10094237;28;20426;-59
2021/07/18 23:51:07;;;;;;;3.80;2.10;;;24.50;61.10;;;;;;10092486;28;20040;-59
2021/07/18 23:55:57;;;;;;;3.55;2.15;;;24.40;61.30;;;;;;10093353;28;20055;-58
